createdAt,value
2023-09-01T00:01:17.881Z,12.06
2023-09-01T00:03:44.858Z,12.01
2023-09-01T00:06:15.840Z,12.01
2023-09-01T00:08:43.955Z,11.98
2023-09-01T00:11:12.062Z,11.91
2023-09-01T00:13:39.157Z,11.96
2023-09-01T00:16:06.200Z,12.00
2023-09-01T00:18:34.284Z,12.00
2023-09-01T00:21:01.815Z,11.99
2023-09-01T00:23:28.913Z,11.98
2023-09-01T00:26:00.767Z,11.94
2023-09-01T00:28:27.715Z,11.98
2023-09-01T00:30:59.128Z,11.95
2023-09-01T00:33:29.252Z,11.89
2023-09-01T00:35:57.204Z,11.94
2023-09-01T00:38:26.158Z,11.97
2023-09-01T00:40:53.585Z,11.98
2023-09-01T00:43:20.469Z,11.96
2023-09-01T00:45:47.340Z,12.03
2023-09-01T00:48:15.003Z,11.96
2023-09-01T00:50:42.749Z,12.03
2023-09-01T00:53:09.741Z,12.07
2023-09-01T00:55:37.498Z,11.99
2023-09-01T00:58:04.577Z,12.02
2023-09-01T01:00:34.100Z,11.93
2023-09-01T01:03:07.937Z,11.87
2023-09-01T01:05:46.488Z,11.88
2023-09-01T01:08:23.976Z,11.80
2023-09-01T01:11:00.780Z,11.82
2023-09-01T01:13:35.532Z,11.81
2023-09-01T01:16:03.479Z,11.82
2023-09-01T01:18:33.520Z,11.82
2023-09-01T01:21:25.747Z,11.75
2023-09-01T01:23:53.454Z,11.75
2023-09-01T01:26:21.585Z,11.74
2023-09-01T01:28:48.307Z,11.76
2023-09-01T01:31:14.992Z,11.84
2023-09-01T01:34:01.133Z,11.81
2023-09-01T01:37:10.040Z,11.75
2023-09-01T01:39:40.046Z,11.72
2023-09-01T01:42:14.977Z,11.70
2023-09-01T01:44:47.694Z,11.66
2023-09-01T01:47:15.235Z,11.67
2023-09-01T01:49:42.010Z,11.66
2023-09-01T01:52:08.698Z,11.68
2023-09-01T01:54:35.384Z,11.59
2023-09-01T01:57:02.098Z,11.63
2023-09-01T01:59:28.931Z,11.60
2023-09-01T02:01:55.687Z,11.63
2023-09-01T02:04:22.531Z,11.62
2023-09-01T02:06:49.192Z,11.67
2023-09-01T02:09:15.834Z,11.63
2023-09-01T02:11:42.438Z,11.63
2023-09-01T02:14:09.265Z,11.68
2023-09-01T02:16:36.046Z,11.63
2023-09-01T02:19:02.671Z,11.63
2023-09-01T02:21:29.381Z,11.56
2023-09-01T02:23:56.067Z,11.59
2023-09-01T02:26:24.600Z,11.63
2023-09-01T02:28:52.031Z,11.63
2023-09-01T02:31:19.535Z,11.67
2023-09-01T02:33:46.212Z,11.69
2023-09-01T02:36:22.656Z,11.68
2023-09-01T02:38:49.312Z,11.59
2023-09-01T02:41:15.907Z,11.60
2023-09-01T02:43:43.474Z,11.64
2023-09-01T02:46:10.034Z,11.69
2023-09-01T02:48:36.676Z,11.69
2023-09-01T02:51:06.166Z,11.72
2023-09-01T02:53:33.644Z,11.75
2023-09-01T02:56:00.418Z,11.71
2023-09-01T02:58:27.362Z,11.75
2023-09-01T03:00:54.345Z,11.83
2023-09-01T03:03:21.998Z,11.90
2023-09-01T03:05:50.449Z,11.94
2023-09-01T03:08:22.530Z,12.01
2023-09-01T03:10:49.468Z,12.01
2023-09-01T03:13:16.218Z,12.11
2023-09-01T03:15:43.543Z,12.16
2023-09-01T03:18:15.607Z,12.18
2023-09-01T03:20:43.736Z,12.22
2023-09-01T03:23:10.387Z,12.20
2023-09-01T03:25:36.974Z,12.19
2023-09-01T03:28:03.779Z,12.20
2023-09-01T03:30:30.375Z,12.24
2023-09-01T03:32:57.066Z,12.28
2023-09-01T03:35:23.952Z,12.27
2023-09-01T03:37:51.098Z,12.30
2023-09-01T03:40:17.970Z,12.26
2023-09-01T03:42:44.563Z,12.22
2023-09-01T03:45:11.544Z,12.22
2023-09-01T03:47:38.290Z,12.24
2023-09-01T03:50:05.521Z,12.26
2023-09-01T03:52:32.161Z,12.20
2023-09-01T03:54:59.698Z,12.17
2023-09-01T03:57:26.328Z,12.13
2023-09-01T03:59:53.345Z,12.18
2023-09-01T04:02:19.994Z,12.12
2023-09-01T04:04:46.593Z,12.04
2023-09-01T04:07:13.214Z,12.00
2023-09-01T04:09:39.832Z,12.00
2023-09-01T04:12:07.039Z,11.97
2023-09-01T04:14:33.689Z,11.95
2023-09-01T04:17:00.491Z,11.94
2023-09-01T04:19:27.221Z,11.95
2023-09-01T04:21:53.852Z,11.92
2023-09-01T04:24:20.729Z,11.97
2023-09-01T04:26:47.448Z,12.06
2023-09-01T04:29:15.221Z,12.05
2023-09-01T04:31:41.892Z,12.11
2023-09-01T04:34:08.592Z,12.14
2023-09-01T04:36:45.597Z,12.18
2023-09-01T04:39:16.492Z,12.23
2023-09-01T04:41:43.526Z,12.23
2023-09-01T04:44:10.257Z,12.29
2023-09-01T04:46:37.051Z,12.28
2023-09-01T04:49:03.881Z,12.37
2023-09-01T04:51:30.492Z,12.35
2023-09-01T04:53:57.157Z,12.45
2023-09-01T04:56:24.026Z,12.46
2023-09-01T04:58:50.686Z,12.55
2023-09-01T05:01:17.416Z,12.68
2023-09-01T05:03:44.247Z,12.73
2023-09-01T05:06:12.133Z,12.79
2023-09-01T05:08:38.845Z,12.89
2023-09-01T05:11:05.800Z,12.95
2023-09-01T05:13:33.346Z,13.01
2023-09-01T05:16:00.044Z,13.13
2023-09-01T05:18:26.777Z,13.20
2023-09-01T05:20:53.362Z,13.26
2023-09-01T05:23:20.004Z,13.35
2023-09-01T05:25:52.462Z,13.42
2023-09-01T05:28:19.199Z,13.50
2023-09-01T05:30:45.925Z,13.60
2023-09-01T05:33:15.398Z,13.70
2023-09-01T05:35:42.491Z,13.75
2023-09-01T05:38:10.575Z,13.85
2023-09-01T05:40:37.946Z,13.89
2023-09-01T05:43:04.630Z,13.89
2023-09-01T05:45:31.899Z,13.91
2023-09-01T05:47:58.838Z,13.97
2023-09-01T05:50:25.541Z,14.04
2023-09-01T05:52:52.234Z,14.10
2023-09-01T05:55:18.974Z,14.17
2023-09-01T05:57:45.656Z,14.29
2023-09-01T06:00:12.812Z,14.38
2023-09-01T06:02:39.626Z,14.45
2023-09-01T06:05:06.876Z,14.56
2023-09-01T06:07:33.538Z,14.72
2023-09-01T06:10:00.242Z,14.80
2023-09-01T06:12:27.006Z,14.89
2023-09-01T06:14:53.673Z,14.98
2023-09-01T06:17:29.471Z,15.01
2023-09-01T06:20:05.510Z,15.14
2023-09-01T06:22:32.128Z,15.24
2023-09-01T06:24:58.944Z,15.17
2023-09-01T06:27:25.706Z,15.08
2023-09-01T06:29:52.395Z,15.14
2023-09-01T06:32:19.048Z,15.15
2023-09-01T06:34:45.720Z,15.14
2023-09-01T06:37:12.365Z,15.26
2023-09-01T06:39:38.965Z,15.25
2023-09-01T06:42:07.424Z,15.33
2023-09-01T06:44:34.157Z,15.34
2023-09-01T06:47:00.906Z,15.39
2023-09-01T06:49:27.577Z,15.57
2023-09-01T06:51:54.143Z,15.70
2023-09-01T06:54:20.979Z,15.83
2023-09-01T06:56:47.656Z,15.93
2023-09-01T06:59:14.458Z,16.22
2023-09-01T07:01:41.388Z,16.34
2023-09-01T07:04:08.450Z,16.49
2023-09-01T07:06:35.336Z,16.61
2023-09-01T07:09:02.579Z,16.66
2023-09-01T07:11:29.298Z,16.69
2023-09-01T07:13:55.953Z,16.74
2023-09-01T07:16:22.649Z,16.72
2023-09-01T07:18:49.319Z,16.89
2023-09-01T07:21:15.886Z,16.92
2023-09-01T07:23:42.671Z,17.07
2023-09-01T07:26:09.345Z,17.31
2023-09-01T07:28:36.109Z,17.34
2023-09-01T07:31:02.867Z,17.59
2023-09-01T07:33:31.629Z,17.52
2023-09-01T07:35:58.624Z,17.69
2023-09-01T07:38:25.285Z,17.65
2023-09-01T07:40:51.918Z,17.76
2023-09-01T07:43:19.213Z,17.83
2023-09-01T07:45:46.105Z,17.93
2023-09-01T07:48:33.218Z,18.13
2023-09-01T07:50:59.936Z,18.13
2023-09-01T07:53:27.814Z,17.89
2023-09-01T07:55:55.364Z,18.17
2023-09-01T07:58:22.140Z,18.46
2023-09-01T08:00:49.488Z,18.73
2023-09-01T08:03:17.569Z,19.18
2023-09-01T08:05:44.430Z,19.22
2023-09-01T08:08:14.630Z,19.54
2023-09-01T08:10:42.767Z,20.02
2023-09-01T08:13:10.044Z,20.22
2023-09-01T08:15:36.885Z,20.50
2023-09-01T08:18:04.219Z,20.45
2023-09-01T08:20:31.015Z,20.45
2023-09-01T08:22:57.780Z,20.49
2023-09-01T08:25:24.544Z,20.57
2023-09-01T08:27:51.246Z,20.30
2023-09-01T08:30:17.998Z,20.21
2023-09-01T08:32:44.816Z,20.30
2023-09-01T08:35:15.104Z,20.29
2023-09-01T08:37:41.858Z,20.29
2023-09-01T08:40:12.328Z,20.54
2023-09-01T08:42:48.837Z,20.59
2023-09-01T08:45:20.771Z,20.17
2023-09-01T08:47:49.780Z,20.66
2023-09-01T08:50:18.019Z,20.81
2023-09-01T08:52:46.375Z,20.89
2023-09-01T08:55:17.412Z,20.41
2023-09-01T08:57:45.485Z,20.82
2023-09-01T09:00:12.634Z,21.30
2023-09-01T09:02:53.043Z,21.42
2023-09-01T09:05:28.729Z,21.35
2023-09-01T09:08:06.900Z,21.26
2023-09-01T09:10:47.701Z,21.23
2023-09-01T09:13:24.752Z,21.23
2023-09-01T09:16:06.876Z,20.86
2023-09-01T09:18:34.368Z,20.73
2023-09-01T09:21:01.698Z,20.88
2023-09-01T09:23:47.091Z,20.95
2023-09-01T09:26:13.983Z,21.14
2023-09-01T09:28:41.250Z,21.28
2023-09-01T09:31:08.001Z,21.54
2023-09-01T09:33:35.680Z,21.70
2023-09-01T09:36:04.956Z,21.96
2023-09-01T09:38:47.866Z,21.53
2023-09-01T09:41:15.326Z,21.49
2023-09-01T09:43:46.802Z,22.21
2023-09-01T09:46:15.812Z,22.91
2023-09-01T09:48:43.327Z,23.20
2023-09-01T09:51:11.478Z,22.38
2023-09-01T09:53:42.340Z,22.49
2023-09-01T09:56:21.254Z,22.37
2023-09-01T09:58:51.534Z,22.24
2023-09-01T10:01:23.034Z,22.58
2023-09-01T10:03:50.932Z,22.72
2023-09-01T10:06:18.810Z,22.89
2023-09-01T10:08:46.743Z,22.38
2023-09-01T10:11:15.366Z,21.97
2023-09-01T10:13:46.126Z,21.80
2023-09-01T10:16:14.676Z,21.91
2023-09-01T10:18:48.663Z,22.12
2023-09-01T10:21:16.631Z,22.08
2023-09-01T10:23:44.727Z,22.10
2023-09-01T10:26:27.644Z,22.44
2023-09-01T10:28:57.754Z,22.60
2023-09-01T10:31:25.232Z,23.08
2023-09-01T10:34:13.645Z,23.07
2023-09-01T10:36:42.259Z,22.86
2023-09-01T10:39:18.214Z,22.61
2023-09-01T10:42:09.107Z,22.35
2023-09-01T10:44:43.520Z,22.06
2023-09-01T10:47:32.082Z,22.19
2023-09-01T10:50:05.493Z,21.95
2023-09-01T10:52:33.030Z,21.87
2023-09-01T10:55:06.648Z,21.76
2023-09-01T10:57:45.463Z,21.42
2023-09-01T11:00:33.272Z,21.07
2023-09-01T11:03:31.869Z,20.85
2023-09-01T11:05:59.937Z,20.57
2023-09-01T11:08:26.862Z,20.40
2023-09-01T11:11:08.541Z,20.38
2023-09-01T11:13:35.309Z,20.43
2023-09-01T11:16:09.394Z,20.49
2023-09-01T11:18:36.180Z,20.55
2023-09-01T11:21:02.956Z,20.37
2023-09-01T11:23:29.615Z,20.40
2023-09-01T11:25:57.613Z,20.52
2023-09-01T11:28:26.837Z,20.54
2023-09-01T11:30:55.381Z,20.61
2023-09-01T11:33:27.162Z,20.68
2023-09-01T11:36:08.319Z,20.56
2023-09-01T11:38:37.776Z,20.50
2023-09-01T11:41:14.771Z,20.53
2023-09-01T11:43:42.817Z,20.78
2023-09-01T11:46:11.836Z,20.71
2023-09-01T11:48:38.714Z,20.94
2023-09-01T11:51:10.311Z,20.73
2023-09-01T11:53:37.716Z,20.52
2023-09-01T11:56:24.449Z,20.40
2023-09-01T11:58:53.581Z,20.25
2023-09-01T12:01:22.396Z,20.24
2023-09-01T12:03:54.350Z,20.02
2023-09-01T12:06:24.765Z,20.13
2023-09-01T12:08:54.100Z,20.24
2023-09-01T12:11:23.420Z,20.25
2023-09-01T12:13:50.482Z,20.12
2023-09-01T12:16:22.876Z,20.30
2023-09-01T12:18:50.255Z,20.11
2023-09-01T12:21:17.347Z,19.97
2023-09-01T12:23:46.157Z,20.08
2023-09-01T12:26:17.277Z,20.01
2023-09-01T12:28:44.828Z,20.02
2023-09-01T12:31:13.118Z,20.08
2023-09-01T12:33:41.144Z,20.05
2023-09-01T12:36:08.257Z,19.87
2023-09-01T12:38:37.717Z,19.82
2023-09-01T12:41:04.459Z,20.00
2023-09-01T12:43:31.349Z,20.12
2023-09-01T12:45:58.482Z,20.35
2023-09-01T12:48:25.254Z,20.49
2023-09-01T12:50:52.216Z,20.67
2023-09-01T12:53:19.584Z,20.58
2023-09-01T12:55:48.768Z,20.79
2023-09-01T12:58:16.020Z,21.15
2023-09-01T13:00:44.003Z,21.05
2023-09-01T13:03:10.876Z,21.06
2023-09-01T13:05:37.738Z,20.83
2023-09-01T13:08:05.070Z,21.12
2023-09-01T13:10:31.832Z,20.95
2023-09-01T13:12:58.724Z,21.16
2023-09-01T13:15:25.580Z,21.16
2023-09-01T13:17:52.281Z,21.00
2023-09-01T13:20:19.114Z,21.04
2023-09-01T13:22:45.967Z,20.87
2023-09-01T13:25:12.765Z,20.48
2023-09-01T13:27:40.226Z,20.40
2023-09-01T13:30:07.856Z,20.23
2023-09-01T13:32:35.083Z,20.21
2023-09-01T13:35:04.192Z,20.11
2023-09-01T13:37:31.138Z,20.13
2023-09-01T13:39:59.718Z,20.17
2023-09-01T13:42:27.567Z,20.13
2023-09-01T13:44:55.850Z,19.88
2023-09-01T13:47:23.470Z,19.91
2023-09-01T13:49:54.875Z,19.96
2023-09-01T13:52:32.735Z,19.99
2023-09-01T13:55:07.792Z,19.83
2023-09-01T13:58:07.198Z,19.51
2023-09-01T14:01:21.799Z,19.54
2023-09-01T14:04:02.773Z,19.55
2023-09-01T14:09:35.874Z,19.35
2023-09-01T14:12:04.428Z,19.32
2023-09-01T14:14:31.625Z,19.28
2023-09-01T14:16:58.386Z,19.18
2023-09-01T14:19:25.233Z,19.19
2023-09-01T14:21:52.044Z,19.14
2023-09-01T14:24:18.766Z,19.11
2023-09-01T14:26:46.844Z,19.12
2023-09-01T14:29:13.597Z,19.03
2023-09-01T14:31:40.268Z,19.13
2023-09-01T14:34:06.949Z,19.03
2023-09-01T14:36:33.607Z,19.00
2023-09-01T14:39:00.252Z,18.90
2023-09-01T14:41:27.332Z,18.79
2023-09-01T14:43:54.149Z,18.75
2023-09-01T14:46:20.964Z,18.74
2023-09-01T14:48:47.862Z,18.68
2023-09-01T14:51:16.105Z,18.72
2023-09-01T14:53:45.664Z,18.60
2023-09-01T14:56:15.589Z,18.60
2023-09-01T14:58:42.543Z,18.54
2023-09-01T15:01:09.416Z,18.55
2023-09-01T15:03:36.661Z,18.57
2023-09-01T15:06:03.455Z,18.52
2023-09-01T15:08:30.180Z,18.42
2023-09-01T15:11:02.791Z,18.33
2023-09-01T15:13:29.528Z,18.33
2023-09-01T15:15:56.181Z,18.32
2023-09-01T15:18:22.969Z,18.13
2023-09-01T15:21:02.455Z,18.21
2023-09-01T15:23:29.130Z,18.12
2023-09-01T15:25:55.731Z,18.13
2023-09-01T15:28:22.427Z,18.05
2023-09-01T15:30:49.130Z,18.05
2023-09-01T15:33:16.049Z,18.02
2023-09-01T15:35:42.884Z,17.89
2023-09-01T15:38:09.534Z,17.80
2023-09-01T15:40:36.414Z,17.76
2023-09-01T15:43:03.401Z,17.77
2023-09-01T15:45:30.262Z,17.65
2023-09-01T15:47:57.180Z,17.65
2023-09-01T15:50:31.512Z,17.58
2023-09-01T15:53:06.271Z,17.44
2023-09-01T15:55:34.234Z,17.42
2023-09-01T15:58:02.137Z,17.44
2023-09-01T16:00:28.916Z,17.41
2023-09-01T16:02:55.894Z,17.31
2023-09-01T16:05:23.180Z,17.42
2023-09-01T16:07:50.035Z,17.41
2023-09-01T16:10:16.682Z,17.54
2023-09-01T16:12:43.512Z,17.64
2023-09-01T16:15:10.678Z,17.67
2023-09-01T16:17:37.407Z,17.63
2023-09-01T16:20:04.697Z,17.79
2023-09-01T16:22:31.328Z,17.81
2023-09-01T16:24:57.904Z,17.85
2023-09-01T16:27:25.181Z,17.82
2023-09-01T16:29:51.897Z,17.85
2023-09-01T16:32:18.496Z,17.80
2023-09-01T16:34:45.207Z,17.78
2023-09-01T16:37:12.341Z,17.72
2023-09-01T16:39:39.015Z,17.74
2023-09-01T16:42:05.726Z,17.73
2023-09-01T16:44:35.120Z,17.79
2023-09-01T16:47:02.434Z,17.80
2023-09-01T16:49:30.130Z,17.86
2023-09-01T16:51:56.850Z,17.89
2023-09-01T16:54:23.577Z,17.93
2023-09-01T16:56:50.203Z,17.88
2023-09-01T16:59:17.205Z,17.88
2023-09-01T17:01:44.393Z,17.83
2023-09-01T17:04:11.134Z,17.78
2023-09-01T17:06:38.044Z,17.78
2023-09-01T17:09:04.832Z,17.78
2023-09-01T17:11:31.747Z,17.79
2023-09-01T17:13:58.885Z,17.79
2023-09-01T17:16:32.529Z,17.78
2023-09-01T17:19:01.900Z,17.78
2023-09-01T17:21:34.472Z,17.75
2023-09-01T17:24:05.215Z,17.75
2023-09-01T17:26:44.626Z,17.69
2023-09-01T17:29:13.828Z,17.66
2023-09-01T17:31:45.532Z,17.68
2023-09-01T17:34:12.729Z,17.62
2023-09-01T17:36:40.408Z,17.52
2023-09-01T17:39:07.335Z,17.49
2023-09-01T17:41:39.263Z,17.40
2023-09-01T17:44:06.967Z,17.32
2023-09-01T17:46:34.525Z,17.29
2023-09-01T17:49:10.519Z,17.33
2023-09-01T17:51:40.843Z,17.27
2023-09-01T17:54:10.522Z,17.30
2023-09-01T17:56:37.326Z,17.30
2023-09-01T17:59:04.084Z,17.28
2023-09-01T18:01:31.262Z,17.27
2023-09-01T18:04:01.111Z,17.32
2023-09-01T18:06:31.906Z,17.34
2023-09-01T18:09:03.982Z,17.27
2023-09-01T18:11:32.732Z,17.22
2023-09-01T18:14:00.297Z,17.24
2023-09-01T18:16:27.540Z,17.23
2023-09-01T18:18:57.897Z,17.18
2023-09-01T18:21:32.986Z,17.17
2023-09-01T18:24:06.429Z,17.08
2023-09-01T18:26:33.171Z,17.17
2023-09-01T18:29:00.559Z,17.08
2023-09-01T18:31:27.315Z,17.03
2023-09-01T18:33:54.341Z,17.00
2023-09-01T18:36:26.111Z,16.97
2023-09-01T18:38:56.664Z,16.96
2023-09-01T18:41:24.008Z,16.93
2023-09-01T18:43:54.188Z,16.93
2023-09-01T18:46:21.155Z,16.94
2023-09-01T18:48:47.993Z,16.90
2023-09-01T18:51:15.065Z,16.92
2023-09-01T18:53:42.799Z,16.90
2023-09-01T18:56:09.710Z,16.97
2023-09-01T18:58:40.834Z,16.93
2023-09-01T19:01:07.755Z,16.93
2023-09-01T19:03:34.907Z,16.93
2023-09-01T19:06:02.178Z,16.94
2023-09-01T19:08:34.291Z,16.92
2023-09-01T19:11:09.759Z,16.90
2023-09-01T19:13:37.779Z,16.83
2023-09-01T19:16:04.874Z,16.92
2023-09-01T19:18:40.233Z,16.93
2023-09-01T19:21:08.196Z,16.96
2023-09-01T19:23:35.634Z,16.98
2023-09-01T19:26:12.213Z,16.98
2023-09-01T19:28:39.309Z,16.98
2023-09-01T19:31:07.986Z,16.97
2023-09-01T19:33:40.853Z,16.96
2023-09-01T19:36:10.365Z,16.93
2023-09-01T19:38:37.216Z,16.96
2023-09-01T19:41:04.934Z,16.97
2023-09-01T19:43:32.966Z,16.95
2023-09-01T19:46:00.626Z,16.90
2023-09-01T19:48:31.960Z,16.91
2023-09-01T19:51:01.325Z,16.92
2023-09-01T19:53:30.295Z,16.91
2023-09-01T19:56:00.045Z,16.90
2023-09-01T19:58:29.342Z,16.86
2023-09-01T20:00:56.627Z,16.84
2023-09-01T20:03:25.496Z,16.79
2023-09-01T20:05:52.923Z,16.78
2023-09-01T20:08:20.723Z,16.84
2023-09-01T20:10:49.175Z,16.85
2023-09-01T20:13:16.900Z,16.82
2023-09-01T20:15:47.478Z,16.85
2023-09-01T20:18:18.742Z,16.89
2023-09-01T20:20:47.088Z,16.86
2023-09-01T20:23:14.341Z,16.87
2023-09-01T20:25:43.389Z,16.88
2023-09-01T20:28:11.505Z,16.81
2023-09-01T20:30:38.217Z,16.81
2023-09-01T20:33:05.452Z,16.85
2023-09-01T20:35:32.182Z,16.89
2023-09-01T20:37:58.953Z,16.83
2023-09-01T20:40:25.542Z,16.80
2023-09-01T20:42:54.264Z,16.78
2023-09-01T20:45:20.936Z,16.76
2023-09-01T20:47:48.894Z,16.75
2023-09-01T20:50:15.999Z,16.74
2023-09-01T20:52:42.886Z,16.76
2023-09-01T20:55:11.270Z,16.77
2023-09-01T20:57:46.198Z,16.77
2023-09-01T21:00:15.398Z,16.75
2023-09-01T21:02:49.764Z,16.72
2023-09-01T21:05:20.643Z,16.67
2023-09-01T21:07:49.820Z,16.66
2023-09-01T21:10:18.424Z,16.65
2023-09-01T21:12:45.301Z,16.61
2023-09-01T21:15:12.047Z,16.60
2023-09-01T21:17:38.710Z,16.62
2023-09-01T21:20:06.285Z,16.61
2023-09-01T21:22:33.025Z,16.61
2023-09-01T21:25:00.132Z,16.56
2023-09-01T21:27:27.058Z,16.56
2023-09-01T21:29:55.023Z,16.54
2023-09-01T21:32:22.042Z,16.50
2023-09-01T21:34:49.548Z,16.52
2023-09-01T21:37:16.608Z,16.52
2023-09-01T21:39:43.497Z,16.51
2023-09-01T21:42:10.255Z,16.57
2023-09-01T21:44:36.977Z,16.53
2023-09-01T21:47:04.176Z,16.47
2023-09-01T21:49:31.311Z,16.48
2023-09-01T21:51:57.933Z,16.49
2023-09-01T21:54:24.702Z,16.49
2023-09-01T21:56:51.514Z,16.47
2023-09-01T21:59:18.116Z,16.44
2023-09-01T22:01:44.747Z,16.47
2023-09-01T22:04:11.309Z,16.48
2023-09-01T22:06:37.982Z,16.49
2023-09-01T22:09:05.452Z,16.46
2023-09-01T22:11:31.986Z,16.46
2023-09-01T22:13:58.765Z,16.47
2023-09-01T22:16:28.369Z,16.47
2023-09-01T22:18:55.631Z,16.48
2023-09-01T22:21:23.326Z,16.50
2023-09-01T22:23:51.280Z,16.49
2023-09-01T22:26:18.032Z,16.48
2023-09-01T22:28:44.704Z,16.49
2023-09-01T22:31:11.441Z,16.47
2023-09-01T22:33:38.168Z,16.49
2023-09-01T22:36:07.501Z,16.50
2023-09-01T22:38:36.162Z,16.50
2023-09-01T22:41:02.975Z,16.50
2023-09-01T22:43:30.618Z,16.49
2023-09-01T22:45:57.400Z,16.43
2023-09-01T22:48:24.392Z,16.44
2023-09-01T22:50:51.270Z,16.44
2023-09-01T22:53:18.625Z,16.44
2023-09-01T22:55:46.163Z,16.51
2023-09-01T22:58:12.974Z,16.42
2023-09-01T23:00:41.158Z,16.37
2023-09-01T23:03:09.347Z,16.34
2023-09-01T23:05:36.626Z,16.26
2023-09-01T23:08:03.726Z,16.20
2023-09-01T23:10:30.586Z,16.17
2023-09-01T23:12:57.235Z,16.15
2023-09-01T23:15:27.689Z,16.12
2023-09-01T23:17:55.322Z,16.12
2023-09-01T23:20:24.452Z,16.14
2023-09-01T23:22:51.404Z,16.10
2023-09-01T23:25:19.796Z,16.08
2023-09-01T23:27:46.705Z,16.04
2023-09-01T23:30:15.000Z,16.05
2023-09-01T23:32:41.807Z,16.01
2023-09-01T23:35:08.669Z,15.95
2023-09-01T23:37:40.119Z,15.90
2023-09-01T23:40:10.516Z,15.82
2023-09-01T23:42:38.106Z,15.80
2023-09-01T23:45:05.699Z,15.75
2023-09-01T23:47:32.396Z,15.69
2023-09-01T23:49:59.174Z,15.67
2023-09-01T23:52:26.279Z,15.60
2023-09-01T23:54:53.502Z,15.50
2023-09-01T23:57:20.100Z,15.49
2023-09-01T23:59:47.284Z,15.47
